Time;durP1;ratioP1;P1;durP2;ratioP2;P2;SDS_P1;SDS_P2;PMS_P1;PMS_P2;Temp;Humidity;BMP_temperature;BMP_pressure;BME280_temperature;BME280_humidity;BME280_pressure;Samples;Min_cycle;Max_cycle;Signal;HPM_P1;HPM_P2
2021/08/29 00:00:20;;;;;;;18.88;10.60;;;13.90;99.70;;;;;;5001868;28;20464;-68
2021/08/29 00:02:45;;;;;;;20.98;9.57;;;13.90;99.70;;;;;;4998133;28;20040;-69
2021/08/29 00:05:11;;;;;;;16.95;9.68;;;13.90;99.70;;;;;;4998742;28;20201;-69
2021/08/29 00:07:37;;;;;;;21.10;9.57;;;13.90;99.70;;;;;;4998067;28;20033;-69
2021/08/29 00:10:03;;;;;;;22.65;9.35;;;13.90;99.70;;;;;;5000376;28;20041;-69
2021/08/29 00:12:29;;;;;;;15.65;8.48;;;13.90;99.70;;;;;;4999251;28;20059;-69
2021/08/29 00:14:55;;;;;;;13.75;7.68;;;13.90;99.60;;;;;;5000258;28;20030;-68
2021/08/29 00:17:20;;;;;;;17.08;8.13;;;13.90;99.70;;;;;;5000082;28;20105;-68
2021/08/29 00:19:46;;;;;;;12.00;7.78;;;13.90;99.70;;;;;;4998954;28;20122;-69
2021/08/29 00:22:12;;;;;;;17.80;7.53;;;13.90;99.60;;;;;;4996843;28;20033;-69
2021/08/29 00:24:38;;;;;;;14.50;7.53;;;13.80;99.60;;;;;;4993385;28;20026;-69
2021/08/29 00:27:04;;;;;;;15.80;8.02;;;13.90;99.60;;;;;;4997939;28;20026;-69
2021/08/29 00:29:29;;;;;;;14.82;7.60;;;13.90;99.60;;;;;;5001272;28;20068;-69
2021/08/29 00:31:55;;;;;;;11.77;7.07;;;13.90;99.60;;;;;;5012065;28;20101;-69
2021/08/29 00:34:21;;;;;;;13.25;6.72;;;13.90;99.60;;;;;;4999228;28;20033;-69
2021/08/29 00:36:46;;;;;;;13.38;6.25;;;13.80;99.50;;;;;;4997914;28;20038;-69
2021/08/29 00:39:12;;;;;;;13.77;6.10;;;13.80;99.60;;;;;;4999295;28;20029;-69
2021/08/29 00:41:42;;;;;;;10.00;5.47;;;13.80;99.50;;;;;;4992022;28;20037;-69
2021/08/29 00:44:12;;;;;;;9.85;5.38;;;13.80;99.60;;;;;;4994564;28;20030;-69
2021/08/29 00:46:39;;;;;;;12.80;5.32;;;13.80;99.60;;;;;;4997687;28;20034;-69
2021/08/29 00:49:05;;;;;;;13.00;6.55;;;13.80;99.60;;;;;;4998949;28;20160;-69
2021/08/29 00:51:33;;;;;;;10.50;5.55;;;13.80;99.60;;;;;;5000078;28;20426;-69
2021/08/29 00:53:59;;;;;;;12.43;5.97;;;13.80;99.70;;;;;;4998463;28;20042;-69
2021/08/29 00:56:27;;;;;;;13.60;6.00;;;13.80;99.70;;;;;;4996534;28;20045;-69
2021/08/29 00:58:55;;;;;;;10.40;5.85;;;13.80;99.70;;;;;;4999548;28;20181;-69
2021/08/29 01:01:28;;;;;;;10.02;5.82;;;13.80;99.70;;;;;;4997154;28;20073;-69
2021/08/29 01:03:59;;;;;;;11.30;6.05;;;13.70;99.70;;;;;;5000846;28;20054;-69
2021/08/29 01:06:31;;;;;;;9.55;4.53;;;13.80;99.80;;;;;;4998884;28;20037;-69
2021/08/29 01:09:01;;;;;;;8.82;4.55;;;13.70;99.70;;;;;;5000768;28;20029;-69
2021/08/29 01:11:28;;;;;;;7.90;4.50;;;13.70;99.80;;;;;;4997990;28;20038;-69
2021/08/29 01:14:04;;;;;;;6.13;3.97;;;13.70;99.80;;;;;;4989219;28;20097;-69
2021/08/29 01:16:33;;;;;;;7.63;4.10;;;13.70;99.80;;;;;;4994632;28;20038;-69
2021/08/29 01:19:01;;;;;;;7.95;3.90;;;13.70;99.80;;;;;;4993670;28;20048;-69
2021/08/29 01:21:32;;;;;;;11.10;4.18;;;13.70;99.80;;;;;;4999437;28;20385;-69
2021/08/29 01:24:02;;;;;;;8.60;4.68;;;13.70;99.80;;;;;;4997269;28;20033;-69
2021/08/29 01:26:33;;;;;;;8.70;4.93;;;13.70;99.80;;;;;;4997401;28;20113;-69
2021/08/29 01:29:03;;;;;;;10.60;5.10;;;13.70;99.80;;;;;;5001632;28;20116;-69
2021/08/29 01:31:30;;;;;;;12.15;5.03;;;13.70;99.90;;;;;;4997953;28;20560;-69
2021/08/29 01:34:01;;;;;;;10.82;4.80;;;13.70;99.90;;;;;;4996694;28;20465;-69
2021/08/29 01:36:29;;;;;;;11.73;4.53;;;13.70;99.80;;;;;;4995042;28;20040;-69
2021/08/29 01:38:55;;;;;;;8.70;4.75;;;13.70;99.90;;;;;;4999831;28;20538;-69
2021/08/29 01:41:24;;;;;;;10.38;4.72;;;13.60;99.80;;;;;;4997751;28;20334;-68
2021/08/29 01:43:50;;;;;;;8.43;5.05;;;13.70;99.90;;;;;;4995321;28;20309;-69
2021/08/29 01:46:18;;;;;;;8.43;4.90;;;13.60;99.80;;;;;;4993445;28;20109;-69
2021/08/29 01:48:45;;;;;;;10.27;4.80;;;13.60;99.80;;;;;;4996889;28;20091;-68
2021/08/29 01:51:12;;;;;;;10.02;5.00;;;13.70;99.90;;;;;;4998168;28;20084;-69
2021/08/29 01:53:39;;;;;;;12.57;5.32;;;13.60;99.90;;;;;;4998375;28;20030;-68
2021/08/29 01:56:06;;;;;;;10.32;4.75;;;13.60;99.90;;;;;;4998117;28;20022;-68
2021/08/29 01:58:31;;;;;;;11.68;5.65;;;13.60;99.90;;;;;;4998132;28;20033;-68
2021/08/29 02:01:00;;;;;;;10.80;6.05;;;13.60;99.90;;;;;;4998653;28;20112;-69
2021/08/29 02:03:26;;;;;;;11.73;6.65;;;13.60;99.90;;;;;;4995468;28;20133;-68
2021/08/29 02:06:26;;;;;;;12.45;7.53;;;13.60;99.90;;;;;;4999737;28;20435;-68
2021/08/29 02:08:57;;;;;;;14.57;6.82;;;13.60;99.90;;;;;;4996709;28;20033;-69
2021/08/29 02:11:25;;;;;;;13.23;7.38;;;13.60;99.90;;;;;;4998921;28;20077;-69
2021/08/29 02:13:55;;;;;;;17.98;8.40;;;13.60;99.90;;;;;;4996664;28;20034;-69
2021/08/29 02:16:22;;;;;;;23.10;8.45;;;13.60;99.90;;;;;;4993805;28;20100;-68
2021/08/29 02:18:53;;;;;;;12.80;8.20;;;13.60;99.90;;;;;;4998092;28;20117;-68
2021/08/29 02:21:19;;;;;;;16.70;8.38;;;13.60;99.90;;;;;;5014898;28;20104;-69
2021/08/29 02:23:46;;;;;;;14.77;7.25;;;13.60;99.90;;;;;;4995875;28;20116;-69
2021/08/29 02:26:13;;;;;;;13.90;7.72;;;13.60;99.90;;;;;;4993949;28;20419;-69
2021/08/29 02:28:39;;;;;;;15.23;7.63;;;13.70;99.90;;;;;;4998268;28;20053;-69
2021/08/29 02:31:07;;;;;;;11.82;7.60;;;13.60;99.90;;;;;;4995827;28;20417;-70
2021/08/29 02:33:33;;;;;;;17.15;8.10;;;13.60;99.90;;;;;;4998415;28;20468;-68
2021/08/29 02:36:00;;;;;;;15.15;7.57;;;13.60;99.90;;;;;;4996982;28;20030;-69
2021/08/29 02:38:26;;;;;;;15.48;8.38;;;13.60;99.90;;;;;;4997995;28;20476;-69
2021/08/29 02:40:55;;;;;;;16.80;7.82;;;13.60;99.90;;;;;;4997776;28;20071;-69
2021/08/29 02:43:21;;;;;;;16.17;8.20;;;13.60;99.90;;;;;;4996360;28;20030;-69
2021/08/29 02:45:48;;;;;;;22.80;8.77;;;13.60;99.90;;;;;;4996079;28;20037;-69
2021/08/29 02:48:15;;;;;;;15.93;8.02;;;13.60;99.90;;;;;;5001666;28;20088;-69
2021/08/29 02:50:41;;;;;;;16.90;8.40;;;13.60;99.90;;;;;;5002049;28;20612;-69
2021/08/29 02:53:07;;;;;;;17.60;8.25;;;13.50;99.90;;;;;;5003088;28;20049;-69
2021/08/29 02:55:33;;;;;;;18.45;9.02;;;13.50;99.90;;;;;;5002027;28;20449;-68
2021/08/29 02:58:05;;;;;;;20.85;8.48;;;13.60;99.90;;;;;;5000040;28;20026;-68
2021/08/29 03:00:31;;;;;;;21.13;8.18;;;13.60;99.90;;;;;;4999784;28;20033;-69
2021/08/29 03:02:57;;;;;;;13.43;7.47;;;13.60;99.90;;;;;;5001800;28;20453;-69
2021/08/29 03:05:23;;;;;;;13.13;7.38;;;13.50;99.90;;;;;;5000363;28;20033;-68
2021/08/29 03:07:49;;;;;;;17.08;7.97;;;13.60;99.90;;;;;;4999023;28;20121;-68
2021/08/29 03:10:15;;;;;;;13.02;7.60;;;13.60;99.90;;;;;;5001285;28;20171;-68
2021/08/29 03:12:42;;;;;;;12.60;7.35;;;13.60;99.90;;;;;;4995559;28;20026;-67
2021/08/29 03:15:08;;;;;;;18.25;8.20;;;13.60;99.90;;;;;;4997673;28;20183;-68
2021/08/29 03:17:34;;;;;;;13.43;7.82;;;13.60;99.90;;;;;;4999389;28;20026;-68
2021/08/29 03:20:01;;;;;;;13.55;6.95;;;13.60;99.90;;;;;;5000049;28;20306;-68
2021/08/29 03:22:28;;;;;;;11.40;6.57;;;13.50;99.90;;;;;;4998515;28;20030;-68
2021/08/29 03:24:53;;;;;;;14.75;5.75;;;13.60;99.90;;;;;;5000614;28;20034;-68
2021/08/29 03:27:19;;;;;;;11.80;6.55;;;13.60;99.90;;;;;;5001601;28;20049;-68
2021/08/29 03:29:45;;;;;;;14.40;6.45;;;13.50;99.90;;;;;;5000451;28;20030;-68
2021/08/29 03:32:11;;;;;;;13.20;6.38;;;13.60;99.90;;;;;;5000093;28;20045;-69
2021/08/29 03:34:37;;;;;;;14.70;6.68;;;13.60;99.90;;;;;;5000710;28;20045;-68
2021/08/29 03:37:06;;;;;;;11.02;6.38;;;13.60;99.90;;;;;;5000252;28;20311;-68
2021/08/29 03:39:33;;;;;;;13.35;6.85;;;13.60;99.90;;;;;;4996378;28;20046;-68
2021/08/29 03:41:59;;;;;;;11.82;5.88;;;13.60;99.90;;;;;;4996238;28;20489;-68
2021/08/29 03:44:25;;;;;;;12.23;5.72;;;13.50;99.90;;;;;;4999838;28;20030;-68
2021/08/29 03:46:52;;;;;;;11.30;6.40;;;13.60;99.90;;;;;;5003542;28;20026;-68
2021/08/29 03:49:18;;;;;;;12.52;5.90;;;13.60;99.90;;;;;;4994362;28;20124;-69
2021/08/29 03:51:46;;;;;;;14.70;5.93;;;13.60;99.90;;;;;;4997786;28;20060;-68
2021/08/29 03:54:13;;;;;;;7.38;5.15;;;13.60;99.90;;;;;;4994803;28;20029;-68
2021/08/29 03:56:39;;;;;;;9.30;5.40;;;13.60;99.90;;;;;;4998775;28;20037;-68
2021/08/29 03:59:06;;;;;;;10.68;5.45;;;13.50;99.90;;;;;;4997129;28;20109;-69
2021/08/29 04:01:32;;;;;;;11.48;6.07;;;13.60;99.90;;;;;;4995349;28;20036;-69
2021/08/29 04:03:58;;;;;;;9.13;5.40;;;13.60;99.90;;;;;;4997662;28;20033;-69
2021/08/29 04:06:28;;;;;;;10.52;5.72;;;13.60;99.90;;;;;;5000193;28;20021;-69
2021/08/29 04:08:55;;;;;;;9.18;5.00;;;13.60;99.90;;;;;;5003451;28;20030;-68
2021/08/29 04:11:23;;;;;;;9.95;4.90;;;13.60;99.90;;;;;;5001609;28;20026;-69
2021/08/29 04:13:51;;;;;;;11.98;5.47;;;13.60;99.90;;;;;;4996739;28;20037;-68
2021/08/29 04:16:18;;;;;;;8.65;5.05;;;13.60;99.80;;;;;;4994809;28;20026;-68
2021/08/29 04:18:47;;;;;;;8.77;5.40;;;13.50;99.90;;;;;;4999129;28;20039;-68
2021/08/29 04:21:14;;;;;;;9.50;5.20;;;13.60;99.90;;;;;;4997487;28;20556;-64
2021/08/29 04:23:40;;;;;;;10.02;5.53;;;13.60;99.90;;;;;;4993299;28;20028;-64
2021/08/29 04:26:07;;;;;;;7.43;4.93;;;13.60;99.90;;;;;;4997073;28;20384;-65
2021/08/29 04:28:33;;;;;;;9.32;4.97;;;13.60;99.90;;;;;;4998981;28;20045;-64
2021/08/29 04:31:01;;;;;;;8.02;5.10;;;13.60;99.90;;;;;;5001346;28;20512;-65
2021/08/29 04:33:27;;;;;;;12.27;5.85;;;13.60;99.90;;;;;;4998764;28;20037;-64
2021/08/29 04:35:54;;;;;;;9.48;5.45;;;13.60;99.90;;;;;;4999258;28;20389;-64
2021/08/29 04:38:19;;;;;;;11.27;5.32;;;13.60;99.90;;;;;;4998616;28;20029;-63
2021/08/29 04:40:45;;;;;;;10.48;5.55;;;13.60;99.90;;;;;;4999312;28;20026;-65
2021/08/29 04:43:11;;;;;;;9.25;6.10;;;13.60;99.90;;;;;;4999195;28;20055;-65
2021/08/29 04:45:37;;;;;;;8.60;5.65;;;13.60;99.90;;;;;;4998274;28;20030;-65
2021/08/29 04:48:02;;;;;;;11.02;6.00;;;13.60;99.90;;;;;;4999836;28;20113;-64
2021/08/29 04:50:31;;;;;;;10.50;5.78;;;13.60;99.90;;;;;;4996576;28;20112;-65
2021/08/29 04:52:57;;;;;;;12.43;6.70;;;13.60;99.90;;;;;;4998545;28;20113;-64
2021/08/29 04:55:23;;;;;;;10.40;5.75;;;13.60;99.90;;;;;;5000818;28;20110;-64
2021/08/29 04:57:48;;;;;;;9.82;5.97;;;13.60;99.90;;;;;;4997974;28;20091;-65
2021/08/29 05:00:14;;;;;;;11.30;6.25;;;13.60;99.90;;;;;;4995824;28;20030;-64
2021/08/29 05:02:40;;;;;;;10.25;6.07;;;13.60;99.90;;;;;;4998337;28;20120;-64
2021/08/29 05:05:06;;;;;;;10.27;6.18;;;13.60;99.90;;;;;;4999723;28;20021;-65
2021/08/29 05:07:32;;;;;;;12.27;5.95;;;13.60;99.90;;;;;;4989804;28;20092;-65
2021/08/29 05:09:58;;;;;;;11.00;6.90;;;13.60;99.90;;;;;;4999185;28;20596;-65
2021/08/29 05:12:24;;;;;;;9.45;6.05;;;13.60;99.90;;;;;;4995976;28;20137;-64
2021/08/29 05:14:50;;;;;;;10.20;6.45;;;13.60;99.90;;;;;;4995905;28;20094;-65
2021/08/29 05:17:15;;;;;;;10.98;6.32;;;13.60;99.90;;;;;;4995574;28;20034;-64
2021/08/29 05:19:41;;;;;;;12.45;6.43;;;13.60;99.90;;;;;;4993633;28;20058;-64
2021/08/29 05:22:07;;;;;;;17.52;6.68;;;13.70;99.90;;;;;;4989043;28;20041;-64
2021/08/29 05:24:32;;;;;;;13.68;6.50;;;13.60;99.90;;;;;;4999517;28;20049;-63
2021/08/29 05:26:58;;;;;;;15.60;6.95;;;13.70;99.90;;;;;;4998000;28;20047;-64
2021/08/29 05:29:24;;;;;;;12.02;6.55;;;13.70;99.90;;;;;;4997772;28;20116;-65
2021/08/29 05:31:49;;;;;;;12.20;6.65;;;13.70;99.90;;;;;;4998583;28;20225;-65
2021/08/29 05:34:15;;;;;;;18.08;6.75;;;13.70;99.90;;;;;;4994629;28;20406;-65
2021/08/29 05:36:41;;;;;;;11.95;6.90;;;13.70;99.90;;;;;;4997032;28;20141;-65
2021/08/29 05:39:06;;;;;;;12.63;6.88;;;13.70;99.90;;;;;;4995513;28;20037;-65
2021/08/29 05:41:32;;;;;;;12.80;6.95;;;13.80;99.90;;;;;;5000717;28;20030;-65
2021/08/29 05:43:57;;;;;;;14.75;7.13;;;13.80;99.90;;;;;;4995146;28;20323;-65
2021/08/29 05:46:23;;;;;;;17.70;6.40;;;13.80;99.90;;;;;;4994553;28;20061;-66
2021/08/29 05:48:50;;;;;;;14.38;6.72;;;13.90;99.90;;;;;;4996740;28;20176;-65
2021/08/29 05:51:16;;;;;;;11.88;7.15;;;13.90;99.90;;;;;;4997190;28;20041;-65
2021/08/29 05:53:42;;;;;;;13.55;7.07;;;13.80;99.90;;;;;;4997870;28;20125;-65
2021/08/29 05:56:08;;;;;;;10.90;6.93;;;13.90;99.90;;;;;;4995349;28;20028;-65
2021/08/29 05:58:33;;;;;;;13.30;6.63;;;13.80;99.90;;;;;;4995808;28;20542;-65
2021/08/29 06:01:02;;;;;;;12.80;6.50;;;14.00;99.90;;;;;;4992729;28;20121;-65
2021/08/29 06:03:28;;;;;;;15.05;7.18;;;13.90;99.90;;;;;;4994090;28;20021;-65
2021/08/29 06:05:54;;;;;;;13.60;6.25;;;13.90;99.90;;;;;;4995105;28;20438;-65
2021/08/29 06:08:19;;;;;;;13.48;6.40;;;13.90;99.90;;;;;;4993746;28;20273;-65
2021/08/29 06:10:45;;;;;;;12.20;6.25;;;13.90;99.90;;;;;;4998337;28;20037;-65
2021/08/29 06:13:11;;;;;;;9.65;5.82;;;13.90;99.90;;;;;;4997583;28;20433;-65
2021/08/29 06:15:36;;;;;;;12.73;5.60;;;13.90;99.90;;;;;;4992265;28;20477;-65
2021/08/29 06:18:02;;;;;;;10.93;5.80;;;14.00;99.90;;;;;;4991976;28;20329;-65
2021/08/29 06:20:28;;;;;;;12.18;6.03;;;14.00;99.90;;;;;;4994059;28;20093;-64
2021/08/29 06:22:53;;;;;;;13.90;6.07;;;14.00;99.90;;;;;;4993997;28;20033;-65
2021/08/29 06:25:19;;;;;;;9.07;5.63;;;14.00;99.90;;;;;;4996974;28;20384;-64
2021/08/29 06:27:45;;;;;;;12.77;5.78;;;14.00;99.90;;;;;;4993123;28;20420;-64
2021/08/29 06:30:11;;;;;;;11.55;5.65;;;14.00;99.90;;;;;;4994501;28;20033;-64
2021/08/29 06:32:36;;;;;;;10.93;6.22;;;14.00;99.90;;;;;;4995817;28;20066;-64
2021/08/29 06:35:02;;;;;;;12.95;6.07;;;14.00;99.90;;;;;;4984353;28;20132;-64
2021/08/29 06:37:28;;;;;;;13.57;5.90;;;14.10;99.90;;;;;;5010057;28;20045;-64
2021/08/29 06:39:54;;;;;;;11.88;6.45;;;14.10;99.90;;;;;;4989396;28;20121;-64
2021/08/29 06:42:19;;;;;;;12.55;5.93;;;14.10;99.90;;;;;;4994882;28;20145;-64
2021/08/29 06:44:45;;;;;;;10.02;6.05;;;14.10;99.90;;;;;;4993781;28;20030;-64
2021/08/29 06:47:11;;;;;;;13.18;6.30;;;14.20;99.90;;;;;;4989678;28;20098;-64
2021/08/29 06:49:36;;;;;;;10.07;5.68;;;14.20;99.90;;;;;;4994916;28;20423;-64
2021/08/29 06:52:02;;;;;;;10.27;6.22;;;14.30;99.90;;;;;;4995443;28;20077;-64
2021/08/29 06:54:28;;;;;;;11.90;5.43;;;14.30;99.90;;;;;;4994012;28;20201;-64
2021/08/29 06:56:53;;;;;;;9.95;5.90;;;14.40;99.90;;;;;;4994977;28;20147;-64
2021/08/29 06:59:19;;;;;;;9.00;5.22;;;14.50;99.90;;;;;;4992248;28;20030;-64
2021/08/29 07:01:44;;;;;;;8.10;4.82;;;14.60;99.90;;;;;;4991353;28;20036;-69
2021/08/29 07:04:10;;;;;;;9.70;4.53;;;14.60;99.80;;;;;;4995734;28;20018;-68
2021/08/29 07:06:37;;;;;;;7.43;4.82;;;14.60;99.60;;;;;;4996110;28;20248;-68
2021/08/29 07:09:03;;;;;;;7.18;4.65;;;14.60;99.70;;;;;;4994793;28;20038;-69
2021/08/29 07:11:28;;;;;;;6.43;3.72;;;14.60;99.50;;;;;;4996473;28;20026;-66
2021/08/29 07:13:54;;;;;;;5.93;3.53;;;14.60;99.50;;;;;;4995119;28;20180;-67
2021/08/29 07:16:19;;;;;;;9.18;4.40;;;14.70;99.60;;;;;;4994549;28;20057;-67
2021/08/29 07:18:45;;;;;;;8.23;4.22;;;14.70;99.70;;;;;;4996577;28;20133;-66
2021/08/29 07:21:11;;;;;;;8.13;4.18;;;14.70;99.50;;;;;;4995669;28;20689;-67
2021/08/29 07:23:36;;;;;;;10.07;4.25;;;14.70;99.60;;;;;;4991162;28;20467;-66
2021/08/29 07:26:02;;;;;;;6.65;3.83;;;14.60;99.40;;;;;;4994598;28;20041;-67
2021/08/29 07:28:27;;;;;;;9.15;3.83;;;14.60;99.50;;;;;;4995973;28;20037;-66
2021/08/29 07:30:53;;;;;;;11.93;5.00;;;14.70;99.50;;;;;;4991104;28;20452;-66
2021/08/29 07:33:19;;;;;;;6.53;4.13;;;14.70;99.60;;;;;;4994330;28;20065;-66
2021/08/29 07:35:44;;;;;;;6.20;3.35;;;14.80;99.60;;;;;;4997910;28;20117;-66
2021/08/29 07:38:10;;;;;;;6.15;3.53;;;14.80;99.40;;;;;;4998459;28;20575;-67
2021/08/29 07:40:36;;;;;;;4.47;3.15;;;14.90;99.50;;;;;;4998366;28;20030;-66
2021/08/29 07:43:02;;;;;;;7.55;3.88;;;14.90;99.40;;;;;;4998911;28;20068;-66
2021/08/29 07:45:28;;;;;;;6.65;2.78;;;15.00;99.40;;;;;;4992151;28;20053;-66
2021/08/29 07:47:54;;;;;;;6.00;3.10;;;15.00;99.30;;;;;;4998477;28;20461;-66
2021/08/29 07:50:21;;;;;;;5.43;2.78;;;15.10;99.20;;;;;;5000138;28;20105;-67
2021/08/29 07:52:47;;;;;;;7.72;3.17;;;15.10;99.20;;;;;;5000096;28;20038;-66
2021/08/29 07:55:13;;;;;;;5.47;2.97;;;15.10;99.10;;;;;;4997141;28;20033;-67
2021/08/29 07:57:38;;;;;;;5.78;2.67;;;15.30;99.20;;;;;;4996111;28;20030;-67
2021/08/29 08:00:05;;;;;;;5.90;2.90;;;15.10;98.70;;;;;;4999512;28;20160;-67
2021/08/29 08:02:30;;;;;;;5.70;2.70;;;15.20;98.90;;;;;;5000483;28;20119;-67
2021/08/29 08:04:57;;;;;;;4.88;2.80;;;15.30;98.80;;;;;;5000072;28;20650;-67
2021/08/29 08:07:23;;;;;;;6.85;2.70;;;15.30;98.80;;;;;;5000726;28;20030;-66
2021/08/29 08:09:48;;;;;;;4.00;2.35;;;15.20;98.70;;;;;;4998769;28;20034;-66
2021/08/29 08:12:14;;;;;;;3.85;2.28;;;15.20;98.80;;;;;;4996970;28;20489;-67
2021/08/29 08:14:39;;;;;;;3.92;2.53;;;15.20;98.80;;;;;;4994539;28;20038;-67
2021/08/29 08:17:05;;;;;;;5.10;2.97;;;15.20;98.80;;;;;;4989478;28;20026;-66
2021/08/29 08:19:31;;;;;;;4.10;2.20;;;15.20;98.70;;;;;;4994429;28;20025;-66
2021/08/29 08:21:57;;;;;;;4.32;2.67;;;15.10;98.70;;;;;;4998476;28;20033;-67
2021/08/29 08:24:23;;;;;;;4.32;2.17;;;15.20;98.70;;;;;;4998024;28;20034;-66
2021/08/29 08:26:48;;;;;;;4.80;2.50;;;15.40;99.00;;;;;;4999665;28;20030;-66
2021/08/29 08:29:14;;;;;;;4.22;2.30;;;15.30;98.80;;;;;;4994959;28;20047;-66
2021/08/29 08:31:39;;;;;;;5.53;2.25;;;15.50;98.80;;;;;;4998127;28;20025;-67
2021/08/29 08:34:05;;;;;;;3.58;2.33;;;15.70;98.90;;;;;;4994221;28;20042;-66
2021/08/29 08:36:31;;;;;;;5.55;2.25;;;15.90;98.60;;;;;;4995287;28;20030;-68
2021/08/29 08:38:57;;;;;;;4.15;1.90;;;16.10;98.60;;;;;;5010965;28;20034;-67
2021/08/29 08:41:22;;;;;;;2.40;1.55;;;16.00;98.10;;;;;;4999335;28;20022;-67
2021/08/29 08:43:48;;;;;;;3.80;1.80;;;15.90;97.80;;;;;;4993790;28;20450;-67
2021/08/29 08:46:16;;;;;;;3.08;1.73;;;15.90;97.50;;;;;;4996090;28;20060;-67
2021/08/29 08:48:47;;;;;;;2.25;1.50;;;15.90;97.80;;;;;;4997901;28;20553;-67
2021/08/29 08:51:22;;;;;;;2.13;1.35;;;15.90;97.90;;;;;;4997489;28;20172;-67
2021/08/29 08:53:51;;;;;;;4.18;1.75;;;16.00;98.00;;;;;;4996863;28;20435;-67
2021/08/29 08:56:19;;;;;;;3.58;2.13;;;16.00;98.30;;;;;;4997027;28;20033;-67
2021/08/29 08:58:45;;;;;;;2.35;1.65;;;16.00;98.10;;;;;;4994676;28;20392;-67
2021/08/29 09:01:12;;;;;;;2.92;1.77;;;16.00;98.10;;;;;;4993074;28;20029;-67
2021/08/29 09:03:38;;;;;;;2.75;1.88;;;16.20;98.20;;;;;;4996274;28;20018;-67
2021/08/29 09:06:08;;;;;;;3.30;2.10;;;16.00;97.60;;;;;;4997366;28;20061;-67
2021/08/29 09:08:35;;;;;;;3.38;2.03;;;16.00;97.80;;;;;;4996147;28;20310;-67
2021/08/29 09:11:01;;;;;;;3.38;2.00;;;16.10;98.10;;;;;;4994895;28;20719;-67
2021/08/29 09:13:47;;;;;;;3.20;1.90;;;16.00;97.60;;;;;;4997481;28;20191;-67
2021/08/29 09:16:18;;;;;;;3.30;2.20;;;16.00;97.70;;;;;;4994463;28;20130;-68
2021/08/29 09:18:50;;;;;;;;;;;16.20;98.00;;;;;;4993705;28;20452;-67
2021/08/29 09:21:24;;;;;;;2.83;1.75;;;16.20;97.90;;;;;;4993836;28;20062;-67
2021/08/29 09:23:51;;;;;;;3.75;2.10;;;16.20;97.70;;;;;;4995398;28;20231;-67
2021/08/29 09:26:24;;;;;;;3.85;2.10;;;16.20;97.60;;;;;;4995977;28;20454;-66
2021/08/29 09:28:55;;;;;;;5.45;2.58;;;16.20;97.50;;;;;;4999399;28;20025;-67
2021/08/29 09:31:21;;;;;;;3.55;2.28;;;16.30;97.90;;;;;;4994411;28;20087;-68
2021/08/29 09:34:01;;;;;;;5.28;2.45;;;16.30;97.60;;;;;;4990836;28;20046;-68
2021/08/29 09:36:31;;;;;;;4.72;2.85;;;16.40;98.00;;;;;;4992966;28;20045;-67
2021/08/29 09:39:18;;;;;;;4.47;2.67;;;16.50;98.10;;;;;;4995775;28;20132;-67
2021/08/29 09:41:44;;;;;;;4.75;2.53;;;16.40;97.80;;;;;;4988557;28;20105;-67
2021/08/29 09:44:12;;;;;;;4.75;2.58;;;16.50;97.70;;;;;;4993666;28;20109;-67
2021/08/29 09:46:56;;;;;;;3.78;2.42;;;16.50;97.50;;;;;;4992544;28;20381;-67
2021/08/29 09:49:27;;;;;;;3.97;2.58;;;16.60;97.50;;;;;;4994990;28;20256;-67
2021/08/29 09:51:55;;;;;;;3.92;2.58;;;16.80;97.60;;;;;;4989423;28;20049;-67
2021/08/29 09:54:47;;;;;;;4.03;2.70;;;16.60;97.30;;;;;;4992935;28;20034;-67
2021/08/29 09:57:13;;;;;;;4.65;3.25;;;16.60;97.40;;;;;;4992313;28;20050;-68
2021/08/29 09:59:50;;;;;;;3.78;2.90;;;16.50;97.50;;;;;;4993950;28;20029;-68
2021/08/29 10:02:26;;;;;;;4.45;3.20;;;16.50;97.70;;;;;;4995901;28;20235;-68
2021/08/29 10:05:13;;;;;;;6.32;3.40;;;16.50;97.80;;;;;;4993909;28;20249;-68
2021/08/29 10:07:54;;;;;;;6.70;2.95;;;16.60;98.00;;;;;;4990879;28;20121;-68
2021/08/29 10:10:22;;;;;;;3.78;2.55;;;16.50;97.80;;;;;;5003356;28;20108;-67
2021/08/29 10:12:49;;;;;;;4.05;2.60;;;16.60;97.80;;;;;;4993920;28;20300;-68
2021/08/29 10:15:18;;;;;;;4.95;2.78;;;16.70;97.00;;;;;;4991198;28;20050;-67
2021/08/29 10:17:45;;;;;;;3.13;2.30;;;16.90;97.80;;;;;;4990873;28;20061;-67
2021/08/29 10:20:16;;;;;;;4.00;2.38;;;17.00;97.80;;;;;;5007370;28;20026;-67
2021/08/29 10:22:42;;;;;;;4.05;2.15;;;17.10;97.60;;;;;;4993861;28;20450;-67
2021/08/29 10:25:14;;;;;;;5.35;2.58;;;17.10;97.20;;;;;;4995817;28;20060;-68
2021/08/29 10:27:43;;;;;;;3.60;2.03;;;17.30;97.50;;;;;;4996500;28;20386;-67
2021/08/29 10:30:12;;;;;;;2.50;1.85;;;17.40;97.20;;;;;;4994771;28;20052;-68
2021/08/29 10:32:45;;;;;;;5.13;2.08;;;17.40;97.10;;;;;;4996181;28;20477;-67
2021/08/29 10:35:12;;;;;;;2.85;1.90;;;17.30;96.90;;;;;;4996664;28;20489;-68
2021/08/29 10:37:40;;;;;;;1.98;1.75;;;17.30;96.90;;;;;;4991800;28;20217;-68
2021/08/29 10:40:07;;;;;;;2.42;1.80;;;17.30;96.80;;;;;;4987527;28;20049;-67
2021/08/29 10:42:38;;;;;;;2.20;1.73;;;17.30;96.70;;;;;;4990180;28;20074;-67
2021/08/29 10:45:05;;;;;;;2.47;1.75;;;17.30;96.90;;;;;;4994206;28;20042;-67
2021/08/29 10:47:32;;;;;;;3.05;2.22;;;17.50;97.10;;;;;;4992349;28;20080;-68
2021/08/29 10:50:00;;;;;;;3.17;2.00;;;17.50;97.00;;;;;;4988711;28;20114;-67
2021/08/29 10:52:31;;;;;;;2.05;1.75;;;17.60;97.00;;;;;;4994707;28;20037;-67
2021/08/29 10:55:02;;;;;;;1.90;1.42;;;17.50;96.40;;;;;;4987238;28;20064;-68
2021/08/29 10:57:30;;;;;;;1.58;1.08;;;17.50;96.70;;;;;;4985348;28;20520;-67
2021/08/29 11:00:10;;;;;;;1.70;1.27;;;17.30;96.60;;;;;;4991919;28;20181;-67
2021/08/29 11:02:44;;;;;;;4.00;1.15;;;17.20;97.00;;;;;;4986197;28;20018;-67
2021/08/29 11:05:13;;;;;;;1.85;1.27;;;17.10;97.10;;;;;;4991664;28;20021;-67
2021/08/29 11:07:47;;;;;;;1.20;1.10;;;17.30;97.60;;;;;;4997391;28;20045;-67
2021/08/29 11:10:42;;;;;;;2.33;1.15;;;17.20;97.10;;;;;;4998215;28;20076;-67
2021/08/29 11:13:34;;;;;;;1.20;1.08;;;17.20;97.30;;;;;;4998932;28;20034;-67
2021/08/29 11:16:11;;;;;;;2.83;1.35;;;17.30;97.40;;;;;;4999547;28;20756;-68
2021/08/29 11:18:59;;;;;;;1.25;1.10;;;17.30;97.80;;;;;;4994694;28;20198;-67
2021/08/29 11:21:41;;;;;;;3.38;1.38;;;17.30;97.90;;;;;;4995426;28;20815;-67
2021/08/29 11:24:06;;;;;;;1.73;1.30;;;17.20;98.00;;;;;;4993167;28;20684;-67
2021/08/29 11:26:35;;;;;;;1.73;1.40;;;17.30;98.10;;;;;;4999503;28;20026;-67
2021/08/29 11:29:02;;;;;;;1.98;1.70;;;17.50;98.10;;;;;;5000019;28;20427;-67
2021/08/29 11:31:50;;;;;;;1.63;1.38;;;17.60;98.20;;;;;;4999259;28;20314;-69
2021/08/29 11:34:16;;;;;;;2.63;1.27;;;17.70;97.80;;;;;;4999590;28;20026;-67
2021/08/29 11:36:42;;;;;;;1.75;1.40;;;17.80;97.50;;;;;;4994890;28;20121;-68
2021/08/29 11:39:37;;;;;;;1.75;1.25;;;18.00;97.60;;;;;;4999474;28;20034;-67
2021/08/29 11:42:16;;;;;;;2.45;1.50;;;17.80;97.40;;;;;;4999982;28;20053;-67
2021/08/29 11:44:44;;;;;;;2.08;1.30;;;17.70;97.40;;;;;;5001944;28;20042;-67
2021/08/29 11:47:10;;;;;;;1.50;1.35;;;17.60;97.10;;;;;;4998990;28;20049;-67
2021/08/29 11:49:38;;;;;;;2.42;1.67;;;17.60;97.40;;;;;;5000669;28;20452;-67
2021/08/29 11:52:04;;;;;;;2.42;1.67;;;17.50;97.20;;;;;;4996761;28;20192;-67
2021/08/29 11:54:30;;;;;;;2.92;2.20;;;17.40;97.70;;;;;;5001488;28;20025;-67
2021/08/29 11:56:56;;;;;;;4.00;2.45;;;17.30;97.90;;;;;;4999195;28;20041;-67
2021/08/29 11:59:33;;;;;;;3.90;2.63;;;17.30;98.00;;;;;;5000677;28;20152;-67
2021/08/29 12:02:00;;;;;;;5.95;2.97;;;17.20;98.00;;;;;;4992967;28;20037;-67
2021/08/29 12:04:26;;;;;;;4.63;3.50;;;17.30;98.30;;;;;;4995974;28;20041;-65
2021/08/29 12:06:52;;;;;;;6.65;4.18;;;17.50;98.40;;;;;;4986790;28;20021;-68
2021/08/29 12:09:20;;;;;;;6.20;4.30;;;17.70;98.30;;;;;;4996134;28;20438;-67
2021/08/29 12:11:47;;;;;;;5.60;3.72;;;18.30;98.30;;;;;;5000255;28;20033;-67
2021/08/29 12:14:18;;;;;;;5.18;3.78;;;18.60;96.80;;;;;;4991698;28;20038;-68
2021/08/29 12:16:52;;;;;;;6.25;3.05;;;18.80;95.40;;;;;;4998469;28;20025;-68
2021/08/29 12:19:21;;;;;;;6.97;3.00;;;19.20;95.50;;;;;;4997511;28;20038;-68
2021/08/29 12:21:47;;;;;;;3.80;2.45;;;19.30;94.10;;;;;;5000897;28;20026;-68
2021/08/29 12:24:14;;;;;;;5.88;3.00;;;19.20;94.30;;;;;;5012337;28;20057;-68
2021/08/29 12:26:40;;;;;;;4.32;2.45;;;19.00;92.60;;;;;;4998857;28;20089;-67
2021/08/29 12:29:07;;;;;;;5.90;2.40;;;18.90;94.20;;;;;;4998453;28;20113;-67
2021/08/29 12:31:38;;;;;;;4.32;2.72;;;18.60;93.10;;;;;;4999586;28;20037;-68
2021/08/29 12:34:05;;;;;;;6.82;2.90;;;18.40;95.10;;;;;;4997448;28;20041;-68
2021/08/29 12:36:34;;;;;;;6.95;3.17;;;18.30;95.30;;;;;;4994916;28;20022;-68
2021/08/29 12:39:00;;;;;;;3.83;2.60;;;18.10;96.10;;;;;;4997337;28;20371;-67
2021/08/29 12:41:26;;;;;;;6.68;2.67;;;17.90;96.10;;;;;;4996755;28;20490;-67
2021/08/29 12:44:01;;;;;;;5.13;3.40;;;17.90;96.70;;;;;;4996172;28;20014;-68
2021/08/29 12:46:27;;;;;;;5.93;2.85;;;18.00;96.60;;;;;;4997884;28;20333;-68